createdAt,value
2018-05-24T00:00:02.868Z,56.7
2018-05-24T00:04:59.995Z,56.7
2018-05-24T00:09:56.799Z,56.6
2018-05-24T00:14:53.797Z,56.7
2018-05-24T00:19:51.204Z,56.7
2018-05-24T00:24:48.274Z,56.7
2018-05-24T00:29:45.286Z,56.8
2018-05-24T00:34:42.225Z,56.9
2018-05-24T00:39:39.428Z,57
2018-05-24T00:44:36.511Z,57.1
2018-05-24T00:49:34.159Z,57
2018-05-24T00:54:30.979Z,57
2018-05-24T00:59:28.014Z,57
2018-05-24T01:04:25.073Z,57
2018-05-24T01:09:22.159Z,57
2018-05-24T01:14:18.784Z,57.3
2018-05-24T01:19:15.481Z,57.3
2018-05-24T01:24:12.540Z,57.3
2018-05-24T01:29:09.625Z,57.3
2018-05-24T01:34:06.737Z,57.4
2018-05-24T01:39:03.941Z,57.5
2018-05-24T01:44:01.608Z,57.5
2018-05-24T01:48:58.756Z,57.3
2018-05-24T01:53:55.819Z,57.1
2018-05-24T01:58:52.635Z,56.9
2018-05-24T02:03:48.961Z,56.8
2018-05-24T02:08:45.725Z,56.8
2018-05-24T02:13:42.790Z,56.8
2018-05-24T02:18:39.819Z,56.8
2018-05-24T02:23:37.065Z,56.8
2018-05-24T02:28:33.786Z,56.8
2018-05-24T02:33:30.877Z,57.1
2018-05-24T02:38:28.049Z,57.1
2018-05-24T02:43:25.126Z,57.1
2018-05-24T02:48:22.316Z,57.1
2018-05-24T02:53:19.511Z,57.3
2018-05-24T02:58:16.615Z,57.1
2018-05-24T03:03:13.538Z,57.1
2018-05-24T03:08:10.829Z,57.1
2018-05-24T03:13:07.886Z,57.1
2018-05-24T03:18:04.972Z,57.1
2018-05-24T03:23:02.074Z,57.1
2018-05-24T03:27:59.139Z,57.2
2018-05-24T03:32:56.231Z,57.1
2018-05-24T03:37:53.309Z,57.1
2018-05-24T03:42:50.165Z,57.2
2018-05-24T03:47:46.951Z,57.1
2018-05-24T03:52:43.253Z,57.1
2018-05-24T03:57:40.475Z,57.1
2018-05-24T04:02:37.576Z,57.3
2018-05-24T04:07:34.698Z,57.7
2018-05-24T04:12:31.659Z,57.9
2018-05-24T04:17:28.640Z,57.5
2018-05-24T04:22:25.669Z,56.7
2018-05-24T04:27:22.520Z,56.4
2018-05-24T04:32:19.405Z,56.6
2018-05-24T04:37:16.557Z,56.8
2018-05-24T04:42:13.323Z,57.3
2018-05-24T04:47:10.443Z,58.3
2018-05-24T04:52:07.890Z,57.1
2018-05-24T04:57:05.096Z,57.3
2018-05-24T05:02:02.234Z,57.5
2018-05-24T05:06:59.385Z,57.3
2018-05-24T05:11:56.405Z,57.4
2018-05-24T05:16:53.429Z,57.6
2018-05-24T05:21:50.489Z,57.7
2018-05-24T05:26:47.892Z,57.5
2018-05-24T05:31:44.573Z,57.8
2018-05-24T05:36:41.720Z,58.1
2018-05-24T05:41:38.908Z,58
2018-05-24T05:46:36.148Z,58
2018-05-24T05:51:33.185Z,57.9
2018-05-24T05:56:30.091Z,57.7
2018-05-24T06:01:26.981Z,57.7
2018-05-24T06:06:24.224Z,57.7
2018-05-24T06:11:21.242Z,57.7
2018-05-24T06:16:18.374Z,57.8
2018-05-24T06:21:15.581Z,57.7
2018-05-24T06:26:12.717Z,57.6
2018-05-24T06:31:09.734Z,57.6
2018-05-24T06:36:06.873Z,57.6
2018-05-24T06:41:04.388Z,57.6
2018-05-24T06:46:01.572Z,57.6
2018-05-24T06:50:58.835Z,57.6
2018-05-24T06:55:56.121Z,57.5
2018-05-24T07:00:53.373Z,57.5
2018-05-24T07:05:50.493Z,57.4
2018-05-24T07:10:47.660Z,57.4
2018-05-24T07:15:44.910Z,57.4
2018-05-24T07:20:42.023Z,57.3
2018-05-24T07:25:38.753Z,57.3
2018-05-24T07:30:35.954Z,57.3
2018-05-24T07:35:32.688Z,57.3
2018-05-24T07:40:29.916Z,57.3
2018-05-24T07:45:27.046Z,57.2
2018-05-24T07:50:24.195Z,57.2
2018-05-24T07:55:21.105Z,57.2
2018-05-24T08:00:17.993Z,57.2
2018-05-24T08:05:14.642Z,57.2
2018-05-24T08:10:11.530Z,57.2
2018-05-24T08:15:08.188Z,57.2
2018-05-24T08:20:05.225Z,57.1
2018-05-24T08:25:02.440Z,57.1
2018-05-24T08:29:59.367Z,57.1
2018-05-24T08:34:56.514Z,57.1
2018-05-24T08:39:53.504Z,57.1
2018-05-24T08:44:50.521Z,57.1
2018-05-24T08:49:47.703Z,57.1
2018-05-24T08:54:44.753Z,57.1
2018-05-24T08:59:41.266Z,57.1
2018-05-24T09:04:38.625Z,57
2018-05-24T09:09:35.898Z,57
2018-05-24T09:14:32.992Z,57
2018-05-24T09:19:36.040Z,57.1
2018-05-24T09:24:33.266Z,57
2018-05-24T09:29:30.212Z,57.1
2018-05-24T09:34:27.140Z,57.1
2018-05-24T09:39:24.449Z,57.1
2018-05-24T09:44:21.599Z,57
2018-05-24T09:49:18.617Z,57
2018-05-24T09:54:15.472Z,57
2018-05-24T09:59:12.716Z,57
2018-05-24T10:04:09.935Z,57
2018-05-24T10:09:08.708Z,57.1
2018-05-24T10:14:15.018Z,57.1
2018-05-24T10:19:10.929Z,57
2018-05-24T10:24:07.805Z,57
2018-05-24T10:29:04.915Z,57
2018-05-24T10:34:01.802Z,57
2018-05-24T10:38:58.883Z,57
2018-05-24T10:43:56.205Z,57
2018-05-24T10:48:53.245Z,57.1
2018-05-24T10:53:50.473Z,57.1
2018-05-24T10:58:47.791Z,57.1
2018-05-24T11:03:45.003Z,57.2
2018-05-24T11:08:42.321Z,57.2
2018-05-24T11:13:39.695Z,57.2
2018-05-24T11:18:36.833Z,57.2
2018-05-24T11:23:34.078Z,57.2
2018-05-24T11:28:31.243Z,57.2
2018-05-24T11:33:28.391Z,57.2
2018-05-24T11:38:25.555Z,57.2
2018-05-24T11:43:22.896Z,57.2
2018-05-24T11:48:20.020Z,57.2
2018-05-24T11:53:17.030Z,57.2
2018-05-24T11:58:14.220Z,57.2
2018-05-24T12:03:11.328Z,57.1
2018-05-24T12:08:08.475Z,57.1
2018-05-24T12:13:05.661Z,57.1
2018-05-24T12:18:02.828Z,57.1
2018-05-24T12:23:00.258Z,57.1
2018-05-24T12:27:57.490Z,57.1
2018-05-24T12:32:54.644Z,57.1
2018-05-24T12:37:52.085Z,57
2018-05-24T12:42:49.335Z,57
2018-05-24T12:47:46.592Z,57
2018-05-24T12:52:43.541Z,57
2018-05-24T12:57:40.746Z,56.9
2018-05-24T13:02:37.724Z,56.9
2018-05-24T13:07:34.797Z,57
2018-05-24T13:12:31.813Z,57
2018-05-24T13:17:28.785Z,57
2018-05-24T13:22:25.923Z,56.9
2018-05-24T13:27:23.476Z,56.9
2018-05-24T13:32:20.390Z,56.9
2018-05-24T13:37:17.677Z,56.9
2018-05-24T13:42:14.889Z,56.8
2018-05-24T13:47:11.623Z,56.8
2018-05-24T13:52:08.774Z,56.9
2018-05-24T13:57:05.477Z,56.9
2018-05-24T14:02:02.396Z,56.9
2018-05-24T14:06:59.061Z,56.8
2018-05-24T14:11:56.140Z,56.8
2018-05-24T14:16:53.475Z,56.7
2018-05-24T14:21:50.176Z,56.7
2018-05-24T14:26:47.316Z,56.6
2018-05-24T14:31:44.414Z,56.5
2018-05-24T14:36:41.644Z,56.4
2018-05-24T14:41:38.865Z,56.3
2018-05-24T14:46:36.152Z,56.3
2018-05-24T14:51:33.600Z,56.2
2018-05-24T14:56:30.801Z,56.2
2018-05-24T15:01:27.711Z,56.1
2018-05-24T15:06:24.254Z,56.1
2018-05-24T15:11:21.317Z,56.1
2018-05-24T15:16:18.608Z,56.1
2018-05-24T15:21:15.264Z,56.1
2018-05-24T15:26:12.325Z,56.1
2018-05-24T15:31:09.459Z,56.1
2018-05-24T15:36:06.679Z,56.1
2018-05-24T15:41:03.887Z,56
2018-05-24T15:46:01.055Z,56
2018-05-24T15:50:57.862Z,56
2018-05-24T15:55:54.721Z,56
2018-05-24T16:00:51.875Z,56
2018-05-24T16:05:49.094Z,56
2018-05-24T16:10:46.431Z,56
2018-05-24T16:15:44.430Z,56
2018-05-24T16:20:41.427Z,55.9
2018-05-24T16:25:38.305Z,55.9
2018-05-24T16:30:35.276Z,55.9
2018-05-24T16:35:32.387Z,55.9
2018-05-24T16:40:29.499Z,55.9
2018-05-24T16:45:26.903Z,55.9
2018-05-24T16:50:24.225Z,55.9
2018-05-24T16:55:21.566Z,55.9
2018-05-24T17:00:19.256Z,55.9
2018-05-24T17:05:16.600Z,55.8
2018-05-24T17:10:14.750Z,55.8
2018-05-24T17:15:12.915Z,55.8
2018-05-24T17:20:10.287Z,55.8
2018-05-24T17:25:07.427Z,55.8
2018-05-24T17:30:05.222Z,55.8
2018-05-24T17:35:02.587Z,55.8
2018-05-24T17:39:59.570Z,55.8
2018-05-24T17:44:56.714Z,55.7
2018-05-24T17:49:53.859Z,55.7
2018-05-24T17:54:50.944Z,55.7
2018-05-24T17:59:48.125Z,55.7
2018-05-24T18:04:45.477Z,55.7
2018-05-24T18:09:42.785Z,55.7
2018-05-24T18:14:40.036Z,55.6
2018-05-24T18:19:37.505Z,55.6
2018-05-24T18:24:34.551Z,55.6
2018-05-24T18:29:31.638Z,55.6
2018-05-24T18:34:28.728Z,55.5
2018-05-24T18:39:26.174Z,55.5
2018-05-24T18:44:23.149Z,55.5
2018-05-24T18:49:20.253Z,55.5
2018-05-24T18:54:17.582Z,55.5
2018-05-24T18:59:14.676Z,55.5
2018-05-24T19:04:11.791Z,55.4
2018-05-24T19:09:09.315Z,55.4
2018-05-24T19:14:06.287Z,55.4
2018-05-24T19:19:03.706Z,55.3
2018-05-24T19:24:00.864Z,55.3
2018-05-24T19:28:58.108Z,55.3
2018-05-24T19:33:55.269Z,55.3
2018-05-24T19:38:52.478Z,55.3
2018-05-24T19:43:49.692Z,55.3
2018-05-24T19:48:46.816Z,55.2
2018-05-24T19:53:44.064Z,55.1
2018-05-24T19:58:41.224Z,55.1
2018-05-24T20:03:38.252Z,55.1
2018-05-24T20:08:35.375Z,55.1
2018-05-24T20:13:32.326Z,55.1
2018-05-24T20:18:29.440Z,55.1
2018-05-24T20:23:26.591Z,55.1
2018-05-24T20:28:23.795Z,55
2018-05-24T20:33:20.799Z,54.9
2018-05-24T20:38:18.108Z,54.8
2018-05-24T20:43:15.499Z,54.8
2018-05-24T20:48:12.681Z,54.9
2018-05-24T20:53:09.864Z,54.9
2018-05-24T20:58:07.137Z,54.9
2018-05-24T21:03:04.471Z,54.9
2018-05-24T21:08:01.678Z,54.8
2018-05-24T21:12:58.557Z,54.8
2018-05-24T21:17:56.029Z,54.7
2018-05-24T21:22:53.361Z,54.6
2018-05-24T21:27:50.299Z,54.6
2018-05-24T21:32:47.571Z,54.6
2018-05-24T21:37:44.662Z,54.6
2018-05-24T21:42:42.139Z,54.6
2018-05-24T21:47:39.444Z,54.6
2018-05-24T21:52:36.622Z,54.6
2018-05-24T21:57:33.962Z,54.5
2018-05-24T22:02:30.957Z,54.5
2018-05-24T22:07:28.117Z,54.4
2018-05-24T22:12:25.012Z,54.4
2018-05-24T22:17:22.080Z,54.4
2018-05-24T22:22:18.675Z,54.4
2018-05-24T22:27:15.920Z,54.4
2018-05-24T22:32:12.885Z,54.5
2018-05-24T22:37:09.789Z,54.5
2018-05-24T22:42:06.627Z,54.4
2018-05-24T22:47:03.689Z,54.3
2018-05-24T22:52:00.884Z,54.3
2018-05-24T22:56:57.964Z,54.3
2018-05-24T23:01:55.020Z,54.3
2018-05-24T23:06:52.164Z,54.3
2018-05-24T23:11:48.906Z,54.3
2018-05-24T23:16:45.985Z,54.3
2018-05-24T23:21:43.056Z,54.3
2018-05-24T23:26:40.392Z,54.3
2018-05-24T23:31:37.402Z,54.2
2018-05-24T23:36:34.725Z,54.1
2018-05-24T23:41:31.877Z,54.1
2018-05-24T23:46:28.891Z,54.1
2018-05-24T23:51:25.821Z,54.1
2018-05-24T23:56:23.050Z,54.2
